sensor_id;sensor_type;location;lat;lon;timestamp;P1;P2;P0
47982;PMS5003;33751;50.816;-1.214;2023-01-05T00:02:00;8;6;
47982;PMS5003;33751;50.816;-1.214;2023-01-05T00:04:27;16;15;
47982;PMS5003;33751;50.816;-1.214;2023-01-05T00:06:54;6;6;
47982;PMS5003;33751;50.816;-1.214;2023-01-05T00:09:21;8;5;
47982;PMS5003;33751;50.816;-1.214;2023-01-05T00:11:48;11;9;
47982;PMS5003;33751;50.816;-1.214;2023-01-05T00:14:15;4;4;
47982;PMS5003;33751;50.816;-1.214;2023-01-05T00:16:43;7;5;
47982;PMS5003;33751;50.816;-1.214;2023-01-05T00:19:10;9;9;
47982;PMS5003;33751;50.816;-1.214;2023-01-05T00:21:37;11;6;
47982;PMS5003;33751;50.816;-1.214;2023-01-05T00:24:04;10;10;
47982;PMS5003;33751;50.816;-1.214;2023-01-05T00:26:32;10;6;
47982;PMS5003;33751;50.816;-1.214;2023-01-05T00:28:59;12;9;
47982;PMS5003;33751;50.816;-1.214;2023-01-05T00:31:25;11;10;
47982;PMS5003;33751;50.816;-1.214;2023-01-05T00:33:52;7;6;
47982;PMS5003;33751;50.816;-1.214;2023-01-05T00:36:18;8;6;
47982;PMS5003;33751;50.816;-1.214;2023-01-05T00:38:45;11;8;
47982;PMS5003;33751;50.816;-1.214;2023-01-05T00:41:12;9;6;
47982;PMS5003;33751;50.816;-1.214;2023-01-05T00:43:38;8;6;
47982;PMS5003;33751;50.816;-1.214;2023-01-05T00:46:05;13;9;
47982;PMS5003;33751;50.816;-1.214;2023-01-05T00:48:32;13;10;
47982;PMS5003;33751;50.816;-1.214;2023-01-05T00:50:58;9;9;
47982;PMS5003;33751;50.816;-1.214;2023-01-05T00:53:25;8;8;
47982;PMS5003;33751;50.816;-1.214;2023-01-05T00:55:55;13;7;
47982;PMS5003;33751;50.816;-1.214;2023-01-05T00:58:23;4;4;
47982;PMS5003;33751;50.816;-1.214;2023-01-05T01:00:49;4;4;
47982;PMS5003;33751;50.816;-1.214;2023-01-05T01:03:16;7;6;
47982;PMS5003;33751;50.816;-1.214;2023-01-05T01:05:42;15;12;
47982;PMS5003;33751;50.816;-1.214;2023-01-05T01:08:09;7;6;
47982;PMS5003;33751;50.816;-1.214;2023-01-05T01:10:37;6;3;
47982;PMS5003;33751;50.816;-1.214;2023-01-05T01:13:05;7;6;
47982;PMS5003;33751;50.816;-1.214;2023-01-05T01:15:32;9;8;
47982;PMS5003;33751;50.816;-1.214;2023-01-05T01:18:00;6;6;
47982;PMS5003;33751;50.816;-1.214;2023-01-05T01:20:27;5;5;
47982;PMS5003;33751;50.816;-1.214;2023-01-05T01:22:53;8;6;
47982;PMS5003;33751;50.816;-1.214;2023-01-05T01:25:20;5;5;
47982;PMS5003;33751;50.816;-1.214;2023-01-05T01:27:47;8;7;
47982;PMS5003;33751;50.816;-1.214;2023-01-05T01:30:13;7;5;
47982;PMS5003;33751;50.816;-1.214;2023-01-05T01:32:40;8;6;
47982;PMS5003;33751;50.816;-1.214;2023-01-05T01:35:07;14;11;
47982;PMS5003;33751;50.816;-1.214;2023-01-05T01:37:34;8;5;
47982;PMS5003;33751;50.816;-1.214;2023-01-05T01:40:01;9;6;
47982;PMS5003;33751;50.816;-1.214;2023-01-05T01:42:27;3;2;
47982;PMS5003;33751;50.816;-1.214;2023-01-05T01:44:56;8;6;
47982;PMS5003;33751;50.816;-1.214;2023-01-05T01:47:26;8;6;
47982;PMS5003;33751;50.816;-1.214;2023-01-05T01:49:58;6;3;
47982;PMS5003;33751;50.816;-1.214;2023-01-05T01:52:28;14;12;
47982;PMS5003;33751;50.816;-1.214;2023-01-05T01:54:57;7;5;
47982;PMS5003;33751;50.816;-1.214;2023-01-05T01:57:26;7;5;
47982;PMS5003;33751;50.816;-1.214;2023-01-05T01:59:54;11;11;
47982;PMS5003;33751;50.816;-1.214;2023-01-05T02:02:24;10;6;
47982;PMS5003;33751;50.816;-1.214;2023-01-05T02:04:53;11;11;
47982;PMS5003;33751;50.816;-1.214;2023-01-05T02:07:22;6;6;
47982;PMS5003;33751;50.816;-1.214;2023-01-05T02:09:51;8;6;
47982;PMS5003;33751;50.816;-1.214;2023-01-05T02:12:21;8;6;
47982;PMS5003;33751;50.816;-1.214;2023-01-05T02:14:58;11;9;
47982;PMS5003;33751;50.816;-1.214;2023-01-05T02:17:38;10;8;
47982;PMS5003;33751;50.816;-1.214;2023-01-05T02:20:23;10;8;
47982;PMS5003;33751;50.816;-1.214;2023-01-05T02:23:04;11;9;
47982;PMS5003;33751;50.816;-1.214;2023-01-05T02:27:36;6;6;
47982;PMS5003;33751;50.816;-1.214;2023-01-05T02:30:16;5;5;
47982;PMS5003;33751;50.816;-1.214;2023-01-05T02:30:59;5;5;
47982;PMS5003;33751;50.816;-1.214;2023-01-05T02:33:39;8;8;
47982;PMS5003;33751;50.816;-1.214;2023-01-05T02:36:16;6;6;
47982;PMS5003;33751;50.816;-1.214;2023-01-05T02:38:51;7;4;
47982;PMS5003;33751;50.816;-1.214;2023-01-05T02:41:28;9;4;
47982;PMS5003;33751;50.816;-1.214;2023-01-05T02:43:58;5;3;
47982;PMS5003;33751;50.816;-1.214;2023-01-05T02:46:27;9;7;
47982;PMS5003;33751;50.816;-1.214;2023-01-05T02:48:54;4;4;
47982;PMS5003;33751;50.816;-1.214;2023-01-05T02:51:24;12;12;
47982;PMS5003;33751;50.816;-1.214;2023-01-05T02:53:55;12;11;
47982;PMS5003;33751;50.816;-1.214;2023-01-05T02:56:28;7;5;
47982;PMS5003;33751;50.816;-1.214;2023-01-05T02:59:00;11;10;
47982;PMS5003;33751;50.816;-1.214;2023-01-05T03:01:31;11;8;
47982;PMS5003;33751;50.816;-1.214;2023-01-05T03:04:03;7;5;
47982;PMS5003;33751;50.816;-1.214;2023-01-05T03:06:35;6;5;
47982;PMS5003;33751;50.816;-1.214;2023-01-05T03:09:06;3;3;
47982;PMS5003;33751;50.816;-1.214;2023-01-05T03:11:38;9;9;
47982;PMS5003;33751;50.816;-1.214;2023-01-05T03:14:15;6;4;
47982;PMS5003;33751;50.816;-1.214;2023-01-05T03:16:46;11;11;
47982;PMS5003;33751;50.816;-1.214;2023-01-05T03:19:17;9;6;
47982;PMS5003;33751;50.816;-1.214;2023-01-05T03:21:46;4;4;
47982;PMS5003;33751;50.816;-1.214;2023-01-05T03:24:16;11;11;
47982;PMS5003;33751;50.816;-1.214;2023-01-05T03:26:43;6;4;
47982;PMS5003;33751;50.816;-1.214;2023-01-05T03:29:10;6;5;
47982;PMS5003;33751;50.816;-1.214;2023-01-05T03:31:38;9;5;
47982;PMS5003;33751;50.816;-1.214;2023-01-05T03:34:10;13;10;
47982;PMS5003;33751;50.816;-1.214;2023-01-05T03:36:44;12;11;
47982;PMS5003;33751;50.816;-1.214;2023-01-05T03:39:16;8;8;
47982;PMS5003;33751;50.816;-1.214;2023-01-05T03:41:46;11;9;
47982;PMS5003;33751;50.816;-1.214;2023-01-05T03:44:13;10;8;
47982;PMS5003;33751;50.816;-1.214;2023-01-05T03:46:40;7;5;
47982;PMS5003;33751;50.816;-1.214;2023-01-05T03:49:08;5;4;
47982;PMS5003;33751;50.816;-1.214;2023-01-05T03:51:35;4;3;
47982;PMS5003;33751;50.816;-1.214;2023-01-05T03:54:02;8;6;
47982;PMS5003;33751;50.816;-1.214;2023-01-05T03:56:28;9;9;
47982;PMS5003;33751;50.816;-1.214;2023-01-05T03:58:55;6;6;
47982;PMS5003;33751;50.816;-1.214;2023-01-05T04:01:22;9;7;
47982;PMS5003;33751;50.816;-1.214;2023-01-05T04:03:49;8;8;
47982;PMS5003;33751;50.816;-1.214;2023-01-05T04:06:16;3;3;
47982;PMS5003;33751;50.816;-1.214;2023-01-05T04:08:43;4;4;
47982;PMS5003;33751;50.816;-1.214;2023-01-05T04:11:10;4;4;
47982;PMS5003;33751;50.816;-1.214;2023-01-05T04:13:38;6;5;
47982;PMS5003;33751;50.816;-1.214;2023-01-05T04:16:05;6;5;
47982;PMS5003;33751;50.816;-1.214;2023-01-05T04:18:32;12;9;
47982;PMS5003;33751;50.816;-1.214;2023-01-05T04:20:59;7;6;
47982;PMS5003;33751;50.816;-1.214;2023-01-05T04:23:26;12;6;
47982;PMS5003;33751;50.816;-1.214;2023-01-05T04:25:52;9;9;
47982;PMS5003;33751;50.816;-1.214;2023-01-05T04:28:19;11;11;
47982;PMS5003;33751;50.816;-1.214;2023-01-05T04:30:48;8;8;
47982;PMS5003;33751;50.816;-1.214;2023-01-05T04:33:16;9;7;
47982;PMS5003;33751;50.816;-1.214;2023-01-05T04:35:43;4;3;
47982;PMS5003;33751;50.816;-1.214;2023-01-05T04:38:10;12;10;
47982;PMS5003;33751;50.816;-1.214;2023-01-05T04:40:37;5;4;
47982;PMS5003;33751;50.816;-1.214;2023-01-05T04:43:05;5;4;
47982;PMS5003;33751;50.816;-1.214;2023-01-05T04:45:32;13;8;
47982;PMS5003;33751;50.816;-1.214;2023-01-05T04:48:00;4;4;
47982;PMS5003;33751;50.816;-1.214;2023-01-05T04:50:27;2;2;
47982;PMS5003;33751;50.816;-1.214;2023-01-05T04:52:54;7;7;
47982;PMS5003;33751;50.816;-1.214;2023-01-05T04:55:21;8;6;
47982;PMS5003;33751;50.816;-1.214;2023-01-05T04:57:48;6;6;
47982;PMS5003;33751;50.816;-1.214;2023-01-05T05:00:15;6;6;
47982;PMS5003;33751;50.816;-1.214;2023-01-05T05:02:42;8;8;
47982;PMS5003;33751;50.816;-1.214;2023-01-05T05:05:08;6;5;
47982;PMS5003;33751;50.816;-1.214;2023-01-05T05:07:36;4;4;
47982;PMS5003;33751;50.816;-1.214;2023-01-05T05:10:03;7;4;
47982;PMS5003;33751;50.816;-1.214;2023-01-05T05:12:30;7;4;
47982;PMS5003;33751;50.816;-1.214;2023-01-05T05:14:57;6;5;
47982;PMS5003;33751;50.816;-1.214;2023-01-05T05:17:24;5;3;
47982;PMS5003;33751;50.816;-1.214;2023-01-05T05:19:51;6;4;
47982;PMS5003;33751;50.816;-1.214;2023-01-05T05:22:17;2;2;
47982;PMS5003;33751;50.816;-1.214;2023-01-05T05:24:44;8;6;
47982;PMS5003;33751;50.816;-1.214;2023-01-05T05:27:11;6;4;
47982;PMS5003;33751;50.816;-1.214;2023-01-05T05:29:37;10;8;
47982;PMS5003;33751;50.816;-1.214;2023-01-05T05:32:04;6;6;
47982;PMS5003;33751;50.816;-1.214;2023-01-05T05:34:31;5;4;
47982;PMS5003;33751;50.816;-1.214;2023-01-05T05:37:00;4;3;
47982;PMS5003;33751;50.816;-1.214;2023-01-05T05:39:27;9;8;
47982;PMS5003;33751;50.816;-1.214;2023-01-05T05:41:54;6;5;
47982;PMS5003;33751;50.816;-1.214;2023-01-05T05:44:21;6;4;
47982;PMS5003;33751;50.816;-1.214;2023-01-05T05:46:47;6;3;
47982;PMS5003;33751;50.816;-1.214;2023-01-05T05:49:14;4;2;
47982;PMS5003;33751;50.816;-1.214;2023-01-05T05:51:41;5;5;
47982;PMS5003;33751;50.816;-1.214;2023-01-05T05:54:08;7;5;
47982;PMS5003;33751;50.816;-1.214;2023-01-05T05:56:35;3;3;
47982;PMS5003;33751;50.816;-1.214;2023-01-05T05:59:02;1;1;
47982;PMS5003;33751;50.816;-1.214;2023-01-05T06:01:29;5;4;
47982;PMS5003;33751;50.816;-1.214;2023-01-05T06:03:56;2;2;
47982;PMS5003;33751;50.816;-1.214;2023-01-05T06:06:23;4;3;
47982;PMS5003;33751;50.816;-1.214;2023-01-05T06:08:50;5;2;
47982;PMS5003;33751;50.816;-1.214;2023-01-05T06:11:17;5;2;
47982;PMS5003;33751;50.816;-1.214;2023-01-05T06:13:44;7;5;
47982;PMS5003;33751;50.816;-1.214;2023-01-05T06:16:11;1;1;
47982;PMS5003;33751;50.816;-1.214;2023-01-05T06:18:37;8;6;
47982;PMS5003;33751;50.816;-1.214;2023-01-05T06:21:04;4;4;
47982;PMS5003;33751;50.816;-1.214;2023-01-05T06:23:31;4;4;
47982;PMS5003;33751;50.816;-1.214;2023-01-05T06:25:58;1;0;
47982;PMS5003;33751;50.816;-1.214;2023-01-05T06:28:24;1;1;
47982;PMS5003;33751;50.816;-1.214;2023-01-05T06:30:51;2;2;
47982;PMS5003;33751;50.816;-1.214;2023-01-05T06:33:17;2;2;
47982;PMS5003;33751;50.816;-1.214;2023-01-05T06:35:44;2;2;
47982;PMS5003;33751;50.816;-1.214;2023-01-05T06:38:11;3;3;
47982;PMS5003;33751;50.816;-1.214;2023-01-05T06:40:38;2;2;
47982;PMS5003;33751;50.816;-1.214;2023-01-05T06:43:04;0;0;
47982;PMS5003;33751;50.816;-1.214;2023-01-05T06:45:32;4;2;
47982;PMS5003;33751;50.816;-1.214;2023-01-05T06:47:59;4;2;
47982;PMS5003;33751;50.816;-1.214;2023-01-05T06:50:26;2;1;
47982;PMS5003;33751;50.816;-1.214;2023-01-05T06:52:52;4;4;
47982;PMS5003;33751;50.816;-1.214;2023-01-05T06:55:19;0;0;
47982;PMS5003;33751;50.816;-1.214;2023-01-05T06:57:45;0;0;
47982;PMS5003;33751;50.816;-1.214;2023-01-05T07:00:12;0;0;
47982;PMS5003;33751;50.816;-1.214;2023-01-05T07:02:41;1;1;
47982;PMS5003;33751;50.816;-1.214;2023-01-05T07:05:08;1;1;
47982;PMS5003;33751;50.816;-1.214;2023-01-05T07:07:36;0;0;
47982;PMS5003;33751;50.816;-1.214;2023-01-05T07:10:03;0;0;
47982;PMS5003;33751;50.816;-1.214;2023-01-05T07:12:31;0;0;
47982;PMS5003;33751;50.816;-1.214;2023-01-05T07:14:58;1;1;
47982;PMS5003;33751;50.816;-1.214;2023-01-05T07:17:25;0;0;
47982;PMS5003;33751;50.816;-1.214;2023-01-05T07:19:52;0;0;
47982;PMS5003;33751;50.816;-1.214;2023-01-05T07:22:19;0;0;
47982;PMS5003;33751;50.816;-1.214;2023-01-05T07:24:45;0;0;
47982;PMS5003;33751;50.816;-1.214;2023-01-05T07:27:12;0;0;
47982;PMS5003;33751;50.816;-1.214;2023-01-05T07:29:39;0;0;
47982;PMS5003;33751;50.816;-1.214;2023-01-05T07:32:06;0;0;
47982;PMS5003;33751;50.816;-1.214;2023-01-05T07:34:33;1;1;
47982;PMS5003;33751;50.816;-1.214;2023-01-05T07:37:00;1;1;
47982;PMS5003;33751;50.816;-1.214;2023-01-05T07:39:27;0;0;
47982;PMS5003;33751;50.816;-1.214;2023-01-05T07:41:53;2;1;
47982;PMS5003;33751;50.816;-1.214;2023-01-05T07:44:20;0;0;
47982;PMS5003;33751;50.816;-1.214;2023-01-05T07:46:47;1;1;
47982;PMS5003;33751;50.816;-1.214;2023-01-05T07:49:14;2;1;
47982;PMS5003;33751;50.816;-1.214;2023-01-05T07:51:40;5;5;
47982;PMS5003;33751;50.816;-1.214;2023-01-05T07:54:07;0;0;
47982;PMS5003;33751;50.816;-1.214;2023-01-05T07:56:34;1;1;
47982;PMS5003;33751;50.816;-1.214;2023-01-05T07:59:02;1;1;
47982;PMS5003;33751;50.816;-1.214;2023-01-05T08:01:29;2;0;
47982;PMS5003;33751;50.816;-1.214;2023-01-05T08:03:55;2;0;
47982;PMS5003;33751;50.816;-1.214;2023-01-05T08:06:22;3;1;
47982;PMS5003;33751;50.816;-1.214;2023-01-05T08:08:48;0;0;
47982;PMS5003;33751;50.816;-1.214;2023-01-05T08:11:17;1;1;
47982;PMS5003;33751;50.816;-1.214;2023-01-05T08:13:44;4;4;
47982;PMS5003;33751;50.816;-1.214;2023-01-05T08:16:10;2;2;
47982;PMS5003;33751;50.816;-1.214;2023-01-05T08:18:37;0;0;
47982;PMS5003;33751;50.816;-1.214;2023-01-05T08:21:04;1;1;
47982;PMS5003;33751;50.816;-1.214;2023-01-05T08:23:31;5;5;
47982;PMS5003;33751;50.816;-1.214;2023-01-05T08:26:02;4;4;
47982;PMS5003;33751;50.816;-1.214;2023-01-05T08:28:31;3;3;
47982;PMS5003;33751;50.816;-1.214;2023-01-05T08:31:00;2;1;
47982;PMS5003;33751;50.816;-1.214;2023-01-05T08:33:27;0;0;
47982;PMS5003;33751;50.816;-1.214;2023-01-05T08:35:54;1;1;
47982;PMS5003;33751;50.816;-1.214;2023-01-05T08:38:21;8;7;
47982;PMS5003;33751;50.816;-1.214;2023-01-05T08:40:48;1;0;
47982;PMS5003;33751;50.816;-1.214;2023-01-05T08:43:15;1;0;
47982;PMS5003;33751;50.816;-1.214;2023-01-05T08:45:46;1;1;
47982;PMS5003;33751;50.816;-1.214;2023-01-05T08:48:14;2;1;
47982;PMS5003;33751;50.816;-1.214;2023-01-05T08:50:41;5;1;
47982;PMS5003;33751;50.816;-1.214;2023-01-05T08:53:09;2;2;
47982;PMS5003;33751;50.816;-1.214;2023-01-05T08:55:36;1;1;
47982;PMS5003;33751;50.816;-1.214;2023-01-05T08:58:02;1;1;
47982;PMS5003;33751;50.816;-1.214;2023-01-05T09:00:29;1;1;
47982;PMS5003;33751;50.816;-1.214;2023-01-05T09:02:57;4;4;
47982;PMS5003;33751;50.816;-1.214;2023-01-05T09:05:23;3;1;
47982;PMS5003;33751;50.816;-1.214;2023-01-05T09:07:52;0;0;
47982;PMS5003;33751;50.816;-1.214;2023-01-05T09:10:19;1;1;
47982;PMS5003;33751;50.816;-1.214;2023-01-05T09:12:46;1;1;
47982;PMS5003;33751;50.816;-1.214;2023-01-05T09:15:12;1;0;
47982;PMS5003;33751;50.816;-1.214;2023-01-05T09:17:39;2;1;
47982;PMS5003;33751;50.816;-1.214;2023-01-05T09:20:06;2;2;
47982;PMS5003;33751;50.816;-1.214;2023-01-05T09:22:34;1;1;
47982;PMS5003;33751;50.816;-1.214;2023-01-05T09:25:01;1;1;
47982;PMS5003;33751;50.816;-1.214;2023-01-05T09:27:29;1;1;
47982;PMS5003;33751;50.816;-1.214;2023-01-05T09:29:55;0;0;
47982;PMS5003;33751;50.816;-1.214;2023-01-05T09:32:23;3;3;
47982;PMS5003;33751;50.816;-1.214;2023-01-05T09:34:49;4;4;
47982;PMS5003;33751;50.816;-1.214;2023-01-05T09:37:17;5;5;
47982;PMS5003;33751;50.816;-1.214;2023-01-05T09:39:44;4;1;
47982;PMS5003;33751;50.816;-1.214;2023-01-05T09:42:12;2;0;
47982;PMS5003;33751;50.816;-1.214;2023-01-05T09:44:41;6;2;
47982;PMS5003;33751;50.816;-1.214;2023-01-05T09:47:12;1;1;
47982;PMS5003;33751;50.816;-1.214;2023-01-05T09:49:44;3;2;
47982;PMS5003;33751;50.816;-1.214;2023-01-05T09:52:13;1;1;
47982;PMS5003;33751;50.816;-1.214;2023-01-05T09:54:41;2;2;
47982;PMS5003;33751;50.816;-1.214;2023-01-05T09:57:12;1;1;
47982;PMS5003;33751;50.816;-1.214;2023-01-05T09:59:43;2;2;
47982;PMS5003;33751;50.816;-1.214;2023-01-05T10:02:14;0;0;
47982;PMS5003;33751;50.816;-1.214;2023-01-05T10:04:46;2;2;
47982;PMS5003;33751;50.816;-1.214;2023-01-05T10:07:16;1;1;
47982;PMS5003;33751;50.816;-1.214;2023-01-05T10:09:56;1;1;
47982;PMS5003;33751;50.816;-1.214;2023-01-05T10:12:27;2;1;
47982;PMS5003;33751;50.816;-1.214;2023-01-05T10:14:59;6;6;
47982;PMS5003;33751;50.816;-1.214;2023-01-05T10:17:32;2;2;
47982;PMS5003;33751;50.816;-1.214;2023-01-05T10:20:01;2;2;
47982;PMS5003;33751;50.816;-1.214;2023-01-05T10:22:33;1;1;
47982;PMS5003;33751;50.816;-1.214;2023-01-05T10:25:21;2;1;
47982;PMS5003;33751;50.816;-1.214;2023-01-05T10:27:56;3;3;
47982;PMS5003;33751;50.816;-1.214;2023-01-05T10:30:36;5;5;
47982;PMS5003;33751;50.816;-1.214;2023-01-05T10:33:13;4;1;
47982;PMS5003;33751;50.816;-1.214;2023-01-05T10:35:46;5;3;
47982;PMS5003;33751;50.816;-1.214;2023-01-05T10:38:28;2;2;
47982;PMS5003;33751;50.816;-1.214;2023-01-05T10:41:09;1;1;
47982;PMS5003;33751;50.816;-1.214;2023-01-05T10:43:52;2;1;
47982;PMS5003;33751;50.816;-1.214;2023-01-05T10:46:32;2;1;
47982;PMS5003;33751;50.816;-1.214;2023-01-05T10:49:02;1;1;
47982;PMS5003;33751;50.816;-1.214;2023-01-05T10:51:31;2;2;
47982;PMS5003;33751;50.816;-1.214;2023-01-05T10:53:59;2;2;
47982;PMS5003;33751;50.816;-1.214;2023-01-05T10:56:28;1;1;
47982;PMS5003;33751;50.816;-1.214;2023-01-05T10:59:05;2;2;
47982;PMS5003;33751;50.816;-1.214;2023-01-05T11:01:33;2;2;
47982;PMS5003;33751;50.816;-1.214;2023-01-05T11:04:03;4;4;
47982;PMS5003;33751;50.816;-1.214;2023-01-05T11:06:34;3;3;
47982;PMS5003;33751;50.816;-1.214;2023-01-05T11:09:05;7;5;
47982;PMS5003;33751;50.816;-1.214;2023-01-05T11:11:41;5;2;
47982;PMS5003;33751;50.816;-1.214;2023-01-05T11:14:12;5;3;
47982;PMS5003;33751;50.816;-1.214;2023-01-05T11:16:45;3;3;
47982;PMS5003;33751;50.816;-1.214;2023-01-05T11:19:15;8;8;
47982;PMS5003;33751;50.816;-1.214;2023-01-05T11:21:44;4;4;
47982;PMS5003;33751;50.816;-1.214;2023-01-05T11:24:25;3;2;
47982;PMS5003;33751;50.816;-1.214;2023-01-05T11:26:54;3;3;
47982;PMS5003;33751;50.816;-1.214;2023-01-05T11:29:23;3;2;
47982;PMS5003;33751;50.816;-1.214;2023-01-05T11:31:51;3;3;
47982;PMS5003;33751;50.816;-1.214;2023-01-05T11:34:23;4;4;
47982;PMS5003;33751;50.816;-1.214;2023-01-05T11:36:55;2;2;
47982;PMS5003;33751;50.816;-1.214;2023-01-05T11:39:25;8;5;
47982;PMS5003;33751;50.816;-1.214;2023-01-05T11:42:12;4;3;
47982;PMS5003;33751;50.816;-1.214;2023-01-05T11:44:42;3;2;
47982;PMS5003;33751;50.816;-1.214;2023-01-05T11:47:17;4;4;
47982;PMS5003;33751;50.816;-1.214;2023-01-05T11:49:48;3;3;
47982;PMS5003;33751;50.816;-1.214;2023-01-05T11:52:25;7;4;
47982;PMS5003;33751;50.816;-1.214;2023-01-05T11:54:54;4;4;
47982;PMS5003;33751;50.816;-1.214;2023-01-05T11:57:21;3;2;
47982;PMS5003;33751;50.816;-1.214;2023-01-05T11:59:48;2;2;
47982;PMS5003;33751;50.816;-1.214;2023-01-05T12:02:24;4;3;
47982;PMS5003;33751;50.816;-1.214;2023-01-05T12:05:14;9;7;
47982;PMS5003;33751;50.816;-1.214;2023-01-05T12:07:49;2;2;
47982;PMS5003;33751;50.816;-1.214;2023-01-05T12:10:26;2;2;
47982;PMS5003;33751;50.816;-1.214;2023-01-05T12:13:02;5;3;
47982;PMS5003;33751;50.816;-1.214;2023-01-05T12:15:45;6;4;
47982;PMS5003;33751;50.816;-1.214;2023-01-05T12:18:26;6;5;
47982;PMS5003;33751;50.816;-1.214;2023-01-05T12:21:06;4;2;
47982;PMS5003;33751;50.816;-1.214;2023-01-05T12:23:56;9;5;
47982;PMS5003;33751;50.816;-1.214;2023-01-05T12:26:35;3;3;
47982;PMS5003;33751;50.816;-1.214;2023-01-05T12:29:18;8;6;
47982;PMS5003;33751;50.816;-1.214;2023-01-05T12:32:03;6;3;
47982;PMS5003;33751;50.816;-1.214;2023-01-05T12:34:42;7;6;
47982;PMS5003;33751;50.816;-1.214;2023-01-05T12:37:32;7;6;
47982;PMS5003;33751;50.816;-1.214;2023-01-05T12:40:15;8;6;
47982;PMS5003;33751;50.816;-1.214;2023-01-05T12:42:56;10;9;
47982;PMS5003;33751;50.816;-1.214;2023-01-05T12:46:02;2;2;
47982;PMS5003;33751;50.816;-1.214;2023-01-05T12:48:38;2;2;
47982;PMS5003;33751;50.816;-1.214;2023-01-05T12:51:10;7;6;
47982;PMS5003;33751;50.816;-1.214;2023-01-05T12:53:46;3;2;
47982;PMS5003;33751;50.816;-1.214;2023-01-05T12:56:22;9;8;
47982;PMS5003;33751;50.816;-1.214;2023-01-05T12:59:01;7;4;
47982;PMS5003;33751;50.816;-1.214;2023-01-05T13:01:34;2;2;
47982;PMS5003;33751;50.816;-1.214;2023-01-05T13:04:10;4;4;
47982;PMS5003;33751;50.816;-1.214;2023-01-05T13:06:53;16;8;
47982;PMS5003;33751;50.816;-1.214;2023-01-05T13:09:23;6;5;
47982;PMS5003;33751;50.816;-1.214;2023-01-05T13:11:57;6;5;
47982;PMS5003;33751;50.816;-1.214;2023-01-05T13:14:32;4;4;
47982;PMS5003;33751;50.816;-1.214;2023-01-05T13:17:02;5;2;
47982;PMS5003;33751;50.816;-1.214;2023-01-05T13:19:34;5;3;
47982;PMS5003;33751;50.816;-1.214;2023-01-05T13:22:13;3;3;
47982;PMS5003;33751;50.816;-1.214;2023-01-05T13:24:45;8;8;
47982;PMS5003;33751;50.816;-1.214;2023-01-05T13:27:17;10;7;
47982;PMS5003;33751;50.816;-1.214;2023-01-05T13:29:45;2;2;
47982;PMS5003;33751;50.816;-1.214;2023-01-05T13:32:23;5;5;
47982;PMS5003;33751;50.816;-1.214;2023-01-05T13:35:02;6;4;
47982;PMS5003;33751;50.816;-1.214;2023-01-05T13:37:50;3;3;
47982;PMS5003;33751;50.816;-1.214;2023-01-05T13:40:36;4;3;
47982;PMS5003;33751;50.816;-1.214;2023-01-05T13:43:35;3;3;
47982;PMS5003;33751;50.816;-1.214;2023-01-05T13:46:18;3;3;
47982;PMS5003;33751;50.816;-1.214;2023-01-05T13:49:02;2;2;
47982;PMS5003;33751;50.816;-1.214;2023-01-05T13:51:49;6;6;
47982;PMS5003;33751;50.816;-1.214;2023-01-05T13:54:19;7;3;
47982;PMS5003;33751;50.816;-1.214;2023-01-05T13:56:55;6;4;
47982;PMS5003;33751;50.816;-1.214;2023-01-05T13:59:24;2;2;
47982;PMS5003;33751;50.816;-1.214;2023-01-05T14:01:54;3;3;
47982;PMS5003;33751;50.816;-1.214;2023-01-05T14:04:24;5;3;
47982;PMS5003;33751;50.816;-1.214;2023-01-05T14:06:55;4;2;
47982;PMS5003;33751;50.816;-1.214;2023-01-05T14:09:27;4;3;
47982;PMS5003;33751;50.816;-1.214;2023-01-05T14:12:46;8;6;
47982;PMS5003;33751;50.816;-1.214;2023-01-05T14:15:33;2;2;
47982;PMS5003;33751;50.816;-1.214;2023-01-05T14:18:03;1;1;
47982;PMS5003;33751;50.816;-1.214;2023-01-05T14:20:32;1;1;
47982;PMS5003;33751;50.816;-1.214;2023-01-05T14:23:50;4;3;
47982;PMS5003;33751;50.816;-1.214;2023-01-05T14:26:57;3;3;
47982;PMS5003;33751;50.816;-1.214;2023-01-05T14:30:00;4;4;
47982;PMS5003;33751;50.816;-1.214;2023-01-05T14:32:27;7;6;
47982;PMS5003;33751;50.816;-1.214;2023-01-05T14:34:58;6;6;
47982;PMS5003;33751;50.816;-1.214;2023-01-05T14:37:33;5;2;
47982;PMS5003;33751;50.816;-1.214;2023-01-05T14:40:12;5;4;
47982;PMS5003;33751;50.816;-1.214;2023-01-05T14:42:46;4;3;
47982;PMS5003;33751;50.816;-1.214;2023-01-05T14:45:20;2;2;
47982;PMS5003;33751;50.816;-1.214;2023-01-05T14:47:51;6;3;
47982;PMS5003;33751;50.816;-1.214;2023-01-05T14:50:26;2;2;
47982;PMS5003;33751;50.816;-1.214;2023-01-05T14:52:57;6;1;
47982;PMS5003;33751;50.816;-1.214;2023-01-05T14:55:27;6;5;
47982;PMS5003;33751;50.816;-1.214;2023-01-05T14:57:56;3;3;
47982;PMS5003;33751;50.816;-1.214;2023-01-05T15:00:34;7;6;
47982;PMS5003;33751;50.816;-1.214;2023-01-05T15:03:09;3;1;
47982;PMS5003;33751;50.816;-1.214;2023-01-05T15:05:44;3;3;
47982;PMS5003;33751;50.816;-1.214;2023-01-05T15:08:22;2;2;
47982;PMS5003;33751;50.816;-1.214;2023-01-05T15:11:07;1;1;
47982;PMS5003;33751;50.816;-1.214;2023-01-05T15:12:23;1;1;
47982;PMS5003;33751;50.816;-1.214;2023-01-05T15:15:02;1;1;
47982;PMS5003;33751;50.816;-1.214;2023-01-05T15:17:46;3;2;
47982;PMS5003;33751;50.816;-1.214;2023-01-05T15:20:28;1;0;
47982;PMS5003;33751;50.816;-1.214;2023-01-05T15:23:20;0;0;
47982;PMS5003;33751;50.816;-1.214;2023-01-05T15:26:08;2;1;
47982;PMS5003;33751;50.816;-1.214;2023-01-05T15:29:00;3;3;
47982;PMS5003;33751;50.816;-1.214;2023-01-05T15:31:44;1;0;
47982;PMS5003;33751;50.816;-1.214;2023-01-05T15:34:18;1;1;
47982;PMS5003;33751;50.816;-1.214;2023-01-05T15:36:50;1;1;
47982;PMS5003;33751;50.816;-1.214;2023-01-05T15:39:23;2;0;
47982;PMS5003;33751;50.816;-1.214;2023-01-05T15:41:52;1;1;
47982;PMS5003;33751;50.816;-1.214;2023-01-05T15:44:23;3;1;
47982;PMS5003;33751;50.816;-1.214;2023-01-05T15:46:54;0;0;
47982;PMS5003;33751;50.816;-1.214;2023-01-05T15:49:22;3;3;
47982;PMS5003;33751;50.816;-1.214;2023-01-05T15:51:53;1;1;
47982;PMS5003;33751;50.816;-1.214;2023-01-05T15:54:22;1;1;
47982;PMS5003;33751;50.816;-1.214;2023-01-05T15:56:51;0;0;
47982;PMS5003;33751;50.816;-1.214;2023-01-05T15:59:21;0;0;
47982;PMS5003;33751;50.816;-1.214;2023-01-05T16:01:53;0;0;
47982;PMS5003;33751;50.816;-1.214;2023-01-05T16:04:20;0;0;
47982;PMS5003;33751;50.816;-1.214;2023-01-05T16:06:48;1;1;
47982;PMS5003;33751;50.816;-1.214;2023-01-05T16:09:26;0;0;
47982;PMS5003;33751;50.816;-1.214;2023-01-05T16:11:57;0;0;
47982;PMS5003;33751;50.816;-1.214;2023-01-05T16:14:29;1;1;
47982;PMS5003;33751;50.816;-1.214;2023-01-05T16:17:04;0;0;
47982;PMS5003;33751;50.816;-1.214;2023-01-05T16:19:38;0;0;
47982;PMS5003;33751;50.816;-1.214;2023-01-05T16:22:10;0;0;
47982;PMS5003;33751;50.816;-1.214;2023-01-05T16:24:42;3;1;
47982;PMS5003;33751;50.816;-1.214;2023-01-05T16:27:17;1;0;
47982;PMS5003;33751;50.816;-1.214;2023-01-05T16:29:45;2;1;
47982;PMS5003;33751;50.816;-1.214;2023-01-05T16:32:30;1;1;
47982;PMS5003;33751;50.816;-1.214;2023-01-05T16:35:32;0;0;
47982;PMS5003;33751;50.816;-1.214;2023-01-05T16:38:12;1;0;
47982;PMS5003;33751;50.816;-1.214;2023-01-05T16:41:19;1;1;
47982;PMS5003;33751;50.816;-1.214;2023-01-05T16:43:50;0;0;
47982;PMS5003;33751;50.816;-1.214;2023-01-05T16:46:23;0;0;
47982;PMS5003;33751;50.816;-1.214;2023-01-05T16:48:54;2;1;
47982;PMS5003;33751;50.816;-1.214;2023-01-05T16:51:34;1;1;
47982;PMS5003;33751;50.816;-1.214;2023-01-05T16:54:10;1;0;
47982;PMS5003;33751;50.816;-1.214;2023-01-05T16:56:46;1;1;
47982;PMS5003;33751;50.816;-1.214;2023-01-05T16:59:29;2;1;